sensor_id;sensor_type;location;lat;lon;timestamp;temperature;humidity
2577;DHT22;1298;51.252;6.802;2023-07-29T00:01:45;19.40;99.90
2577;DHT22;1298;51.252;6.802;2023-07-29T00:04:31;19.40;99.90
2577;DHT22;1298;51.252;6.802;2023-07-29T00:07:16;19.40;99.90
2577;DHT22;1298;51.252;6.802;2023-07-29T00:10:04;19.40;99.90
2577;DHT22;1298;51.252;6.802;2023-07-29T00:12:49;19.50;99.90
2577;DHT22;1298;51.252;6.802;2023-07-29T00:15:35;19.50;99.90
2577;DHT22;1298;51.252;6.802;2023-07-29T00:18:20;19.50;99.90
2577;DHT22;1298;51.252;6.802;2023-07-29T00:21:06;19.50;99.90
2577;DHT22;1298;51.252;6.802;2023-07-29T00:23:51;19.50;99.90
2577;DHT22;1298;51.252;6.802;2023-07-29T00:26:38;19.50;99.90
2577;DHT22;1298;51.252;6.802;2023-07-29T00:29:24;19.40;99.90
2577;DHT22;1298;51.252;6.802;2023-07-29T00:32:09;19.40;99.90
2577;DHT22;1298;51.252;6.802;2023-07-29T00:34:55;19.40;99.90
2577;DHT22;1298;51.252;6.802;2023-07-29T00:37:40;19.40;99.90
2577;DHT22;1298;51.252;6.802;2023-07-29T00:40:28;19.40;99.90
2577;DHT22;1298;51.252;6.802;2023-07-29T00:43:15;19.40;99.90
2577;DHT22;1298;51.252;6.802;2023-07-29T00:46:01;19.30;99.90
2577;DHT22;1298;51.252;6.802;2023-07-29T00:48:47;19.30;99.90
2577;DHT22;1298;51.252;6.802;2023-07-29T00:51:32;19.20;99.90
2577;DHT22;1298;51.252;6.802;2023-07-29T00:54:18;19.20;99.90
2577;DHT22;1298;51.252;6.802;2023-07-29T00:57:04;19.20;99.90
2577;DHT22;1298;51.252;6.802;2023-07-29T00:59:51;19.10;99.90
2577;DHT22;1298;51.252;6.802;2023-07-29T01:02:37;19.10;99.90
2577;DHT22;1298;51.252;6.802;2023-07-29T01:05:23;19.10;99.90
2577;DHT22;1298;51.252;6.802;2023-07-29T01:08:18;19.10;99.90
2577;DHT22;1298;51.252;6.802;2023-07-29T01:11:17;19.10;99.90
2577;DHT22;1298;51.252;6.802;2023-07-29T01:14:10;19.20;99.90
2577;DHT22;1298;51.252;6.802;2023-07-29T01:17:03;19.20;99.90
2577;DHT22;1298;51.252;6.802;2023-07-29T01:20:00;19.10;99.90
2577;DHT22;1298;51.252;6.802;2023-07-29T01:22:48;19.10;99.90
2577;DHT22;1298;51.252;6.802;2023-07-29T01:25:35;19.10;99.90
2577;DHT22;1298;51.252;6.802;2023-07-29T01:28:20;19.10;99.90
2577;DHT22;1298;51.252;6.802;2023-07-29T01:31:10;19.20;99.90
2577;DHT22;1298;51.252;6.802;2023-07-29T01:33:59;19.20;99.90
2577;DHT22;1298;51.252;6.802;2023-07-29T01:36:48;19.20;99.90
2577;DHT22;1298;51.252;6.802;2023-07-29T01:39:36;19.20;99.90
2577;DHT22;1298;51.252;6.802;2023-07-29T01:42:24;19.20;99.90
2577;DHT22;1298;51.252;6.802;2023-07-29T01:45:09;19.20;99.90
2577;DHT22;1298;51.252;6.802;2023-07-29T01:47:55;19.20;99.90
2577;DHT22;1298;51.252;6.802;2023-07-29T01:50:40;19.20;99.90
2577;DHT22;1298;51.252;6.802;2023-07-29T01:53:26;19.20;99.90
2577;DHT22;1298;51.252;6.802;2023-07-29T01:56:11;19.20;99.90
2577;DHT22;1298;51.252;6.802;2023-07-29T01:58:58;19.20;99.90
2577;DHT22;1298;51.252;6.802;2023-07-29T02:01:44;19.20;99.90
2577;DHT22;1298;51.252;6.802;2023-07-29T02:04:30;19.20;99.90
2577;DHT22;1298;51.252;6.802;2023-07-29T02:07:16;19.20;99.90
2577;DHT22;1298;51.252;6.802;2023-07-29T02:10:02;19.20;99.90
2577;DHT22;1298;51.252;6.802;2023-07-29T02:12:48;19.20;99.90
2577;DHT22;1298;51.252;6.802;2023-07-29T02:15:34;19.20;99.90
2577;DHT22;1298;51.252;6.802;2023-07-29T02:18:20;19.10;99.90
2577;DHT22;1298;51.252;6.802;2023-07-29T02:21:05;19.10;99.90
2577;DHT22;1298;51.252;6.802;2023-07-29T02:23:50;19.20;99.90
2577;DHT22;1298;51.252;6.802;2023-07-29T02:26:36;19.20;99.90
2577;DHT22;1298;51.252;6.802;2023-07-29T02:29:22;19.20;99.90
2577;DHT22;1298;51.252;6.802;2023-07-29T02:32:08;19.10;99.90
2577;DHT22;1298;51.252;6.802;2023-07-29T02:34:54;19.10;99.90
2577;DHT22;1298;51.252;6.802;2023-07-29T02:37:39;19.20;99.90
2577;DHT22;1298;51.252;6.802;2023-07-29T02:40:25;19.10;99.90
2577;DHT22;1298;51.252;6.802;2023-07-29T02:43:12;19.10;99.90
2577;DHT22;1298;51.252;6.802;2023-07-29T02:45:57;19.10;99.90
2577;DHT22;1298;51.252;6.802;2023-07-29T02:48:44;19.10;99.90
2577;DHT22;1298;51.252;6.802;2023-07-29T02:51:30;19.10;99.90
2577;DHT22;1298;51.252;6.802;2023-07-29T02:54:15;19.10;99.90
2577;DHT22;1298;51.252;6.802;2023-07-29T02:57:01;19.10;99.90
2577;DHT22;1298;51.252;6.802;2023-07-29T02:59:46;19.20;99.90
2577;DHT22;1298;51.252;6.802;2023-07-29T03:02:32;19.20;99.90
2577;DHT22;1298;51.252;6.802;2023-07-29T03:05:19;19.30;99.90
2577;DHT22;1298;51.252;6.802;2023-07-29T03:08:04;19.30;99.90
2577;DHT22;1298;51.252;6.802;2023-07-29T03:10:50;19.30;99.90
2577;DHT22;1298;51.252;6.802;2023-07-29T03:13:35;19.30;99.90
2577;DHT22;1298;51.252;6.802;2023-07-29T03:16:21;19.30;99.90
2577;DHT22;1298;51.252;6.802;2023-07-29T03:19:06;19.40;99.90
2577;DHT22;1298;51.252;6.802;2023-07-29T03:21:53;19.40;99.90
2577;DHT22;1298;51.252;6.802;2023-07-29T03:24:39;19.40;99.90
2577;DHT22;1298;51.252;6.802;2023-07-29T03:27:24;19.30;99.90
2577;DHT22;1298;51.252;6.802;2023-07-29T03:30:10;19.30;99.90
2577;DHT22;1298;51.252;6.802;2023-07-29T03:32:56;19.30;99.90
2577;DHT22;1298;51.252;6.802;2023-07-29T03:35:41;19.40;99.90
2577;DHT22;1298;51.252;6.802;2023-07-29T03:38:30;19.30;99.90
2577;DHT22;1298;51.252;6.802;2023-07-29T03:41:17;19.30;99.90
2577;DHT22;1298;51.252;6.802;2023-07-29T03:44:02;19.30;99.90
2577;DHT22;1298;51.252;6.802;2023-07-29T03:46:48;19.30;99.90
2577;DHT22;1298;51.252;6.802;2023-07-29T03:49:34;19.30;99.90
2577;DHT22;1298;51.252;6.802;2023-07-29T03:52:20;19.30;99.90
2577;DHT22;1298;51.252;6.802;2023-07-29T03:55:08;19.30;99.90
2577;DHT22;1298;51.252;6.802;2023-07-29T03:57:53;19.40;99.90
2577;DHT22;1298;51.252;6.802;2023-07-29T04:00:39;19.40;99.90
2577;DHT22;1298;51.252;6.802;2023-07-29T04:03:24;19.40;99.90
2577;DHT22;1298;51.252;6.802;2023-07-29T04:06:10;19.30;99.90
2577;DHT22;1298;51.252;6.802;2023-07-29T04:08:56;19.40;99.90
2577;DHT22;1298;51.252;6.802;2023-07-29T04:11:43;19.30;99.90
2577;DHT22;1298;51.252;6.802;2023-07-29T04:14:28;19.30;99.90
2577;DHT22;1298;51.252;6.802;2023-07-29T04:17:14;19.20;99.90
2577;DHT22;1298;51.252;6.802;2023-07-29T04:20:00;19.20;99.90
2577;DHT22;1298;51.252;6.802;2023-07-29T04:22:45;19.20;99.90
2577;DHT22;1298;51.252;6.802;2023-07-29T04:25:31;19.10;99.90
2577;DHT22;1298;51.252;6.802;2023-07-29T04:28:17;19.10;99.90
2577;DHT22;1298;51.252;6.802;2023-07-29T04:31:03;19.10;99.90
2577;DHT22;1298;51.252;6.802;2023-07-29T04:33:48;19.10;99.90
2577;DHT22;1298;51.252;6.802;2023-07-29T04:36:34;19.10;99.90
2577;DHT22;1298;51.252;6.802;2023-07-29T04:39:20;19.00;99.90
2577;DHT22;1298;51.252;6.802;2023-07-29T04:42:06;19.00;99.90
2577;DHT22;1298;51.252;6.802;2023-07-29T04:44:52;19.00;99.90
2577;DHT22;1298;51.252;6.802;2023-07-29T04:47:37;19.00;99.90
2577;DHT22;1298;51.252;6.802;2023-07-29T04:50:23;19.00;99.90
2577;DHT22;1298;51.252;6.802;2023-07-29T04:53:09;19.00;99.90
2577;DHT22;1298;51.252;6.802;2023-07-29T04:55:54;19.00;99.90
2577;DHT22;1298;51.252;6.802;2023-07-29T04:58:40;19.00;99.90
2577;DHT22;1298;51.252;6.802;2023-07-29T05:01:27;19.00;99.90
2577;DHT22;1298;51.252;6.802;2023-07-29T05:04:13;19.00;99.90
2577;DHT22;1298;51.252;6.802;2023-07-29T05:06:58;19.00;99.90
2577;DHT22;1298;51.252;6.802;2023-07-29T05:09:44;19.00;99.90
2577;DHT22;1298;51.252;6.802;2023-07-29T05:12:30;19.00;99.90
2577;DHT22;1298;51.252;6.802;2023-07-29T05:15:16;19.00;99.90
2577;DHT22;1298;51.252;6.802;2023-07-29T05:18:04;19.00;99.90
2577;DHT22;1298;51.252;6.802;2023-07-29T05:20:49;19.00;99.90
2577;DHT22;1298;51.252;6.802;2023-07-29T05:23:35;19.00;99.90
2577;DHT22;1298;51.252;6.802;2023-07-29T05:26:21;19.10;99.90
2577;DHT22;1298;51.252;6.802;2023-07-29T05:29:08;19.10;99.90
2577;DHT22;1298;51.252;6.802;2023-07-29T05:31:54;19.10;99.90
2577;DHT22;1298;51.252;6.802;2023-07-29T05:34:42;19.00;99.90
2577;DHT22;1298;51.252;6.802;2023-07-29T05:37:27;19.00;99.90
2577;DHT22;1298;51.252;6.802;2023-07-29T05:40:13;19.00;99.90
2577;DHT22;1298;51.252;6.802;2023-07-29T05:42:59;19.10;99.90
2577;DHT22;1298;51.252;6.802;2023-07-29T05:45:45;19.10;99.90
2577;DHT22;1298;51.252;6.802;2023-07-29T05:48:30;19.10;99.90
2577;DHT22;1298;51.252;6.802;2023-07-29T05:51:18;19.00;99.90
2577;DHT22;1298;51.252;6.802;2023-07-29T05:54:03;19.10;99.90
2577;DHT22;1298;51.252;6.802;2023-07-29T05:56:49;19.10;99.90
2577;DHT22;1298;51.252;6.802;2023-07-29T05:59:34;19.00;99.90
2577;DHT22;1298;51.252;6.802;2023-07-29T06:02:20;19.00;99.90
2577;DHT22;1298;51.252;6.802;2023-07-29T06:05:06;19.00;99.90
2577;DHT22;1298;51.252;6.802;2023-07-29T06:07:53;19.00;99.90
2577;DHT22;1298;51.252;6.802;2023-07-29T06:10:38;19.00;99.90
2577;DHT22;1298;51.252;6.802;2023-07-29T06:13:24;19.00;99.90
2577;DHT22;1298;51.252;6.802;2023-07-29T06:16:10;19.00;99.90
2577;DHT22;1298;51.252;6.802;2023-07-29T06:18:55;19.20;99.90
2577;DHT22;1298;51.252;6.802;2023-07-29T06:21:41;19.20;99.90
2577;DHT22;1298;51.252;6.802;2023-07-29T06:24:27;19.20;99.90
2577;DHT22;1298;51.252;6.802;2023-07-29T06:27:13;19.20;99.90
2577;DHT22;1298;51.252;6.802;2023-07-29T06:29:59;19.20;99.90
2577;DHT22;1298;51.252;6.802;2023-07-29T06:32:45;19.20;99.90
2577;DHT22;1298;51.252;6.802;2023-07-29T06:35:30;19.30;99.90
2577;DHT22;1298;51.252;6.802;2023-07-29T06:38:16;19.20;99.90
2577;DHT22;1298;51.252;6.802;2023-07-29T06:41:07;19.20;99.90
2577;DHT22;1298;51.252;6.802;2023-07-29T06:43:52;19.20;99.90
2577;DHT22;1298;51.252;6.802;2023-07-29T06:46:38;19.20;99.90
2577;DHT22;1298;51.252;6.802;2023-07-29T06:49:23;19.20;99.90
2577;DHT22;1298;51.252;6.802;2023-07-29T06:52:09;19.10;99.90
2577;DHT22;1298;51.252;6.802;2023-07-29T06:54:54;19.10;99.90
2577;DHT22;1298;51.252;6.802;2023-07-29T06:57:41;19.20;99.90
2577;DHT22;1298;51.252;6.802;2023-07-29T07:00:27;19.20;99.90
2577;DHT22;1298;51.252;6.802;2023-07-29T07:03:12;19.30;99.90
2577;DHT22;1298;51.252;6.802;2023-07-29T07:05:58;19.30;99.90
2577;DHT22;1298;51.252;6.802;2023-07-29T07:08:44;19.40;99.90
2577;DHT22;1298;51.252;6.802;2023-07-29T07:11:29;19.50;99.90
2577;DHT22;1298;51.252;6.802;2023-07-29T07:14:16;19.60;99.90
2577;DHT22;1298;51.252;6.802;2023-07-29T07:17:03;19.70;99.90
2577;DHT22;1298;51.252;6.802;2023-07-29T07:19:48;19.70;99.90
2577;DHT22;1298;51.252;6.802;2023-07-29T07:22:34;19.80;99.90
2577;DHT22;1298;51.252;6.802;2023-07-29T07:25:19;20.00;99.90
2577;DHT22;1298;51.252;6.802;2023-07-29T07:28:05;20.00;99.90
2577;DHT22;1298;51.252;6.802;2023-07-29T07:30:52;20.00;99.90
2577;DHT22;1298;51.252;6.802;2023-07-29T07:33:39;20.10;99.90
2577;DHT22;1298;51.252;6.802;2023-07-29T07:36:25;20.20;99.90
2577;DHT22;1298;51.252;6.802;2023-07-29T07:39:10;20.30;99.90
2577;DHT22;1298;51.252;6.802;2023-07-29T07:41:56;20.30;99.90
2577;DHT22;1298;51.252;6.802;2023-07-29T07:44:42;20.10;99.90
2577;DHT22;1298;51.252;6.802;2023-07-29T07:47:29;20.00;99.90
2577;DHT22;1298;51.252;6.802;2023-07-29T07:50:14;20.00;99.90
2577;DHT22;1298;51.252;6.802;2023-07-29T07:52:59;19.90;99.90
2577;DHT22;1298;51.252;6.802;2023-07-29T07:55:45;19.80;99.90
2577;DHT22;1298;51.252;6.802;2023-07-29T07:58:31;19.90;99.90
2577;DHT22;1298;51.252;6.802;2023-07-29T08:01:16;19.90;99.90
2577;DHT22;1298;51.252;6.802;2023-07-29T08:04:03;20.00;99.90
2577;DHT22;1298;51.252;6.802;2023-07-29T08:06:48;20.20;99.90
2577;DHT22;1298;51.252;6.802;2023-07-29T08:09:34;20.30;99.90
2577;DHT22;1298;51.252;6.802;2023-07-29T08:12:20;20.60;99.90
2577;DHT22;1298;51.252;6.802;2023-07-29T08:15:06;20.70;99.90
2577;DHT22;1298;51.252;6.802;2023-07-29T08:17:51;20.90;99.90
2577;DHT22;1298;51.252;6.802;2023-07-29T08:20:38;20.90;99.90
2577;DHT22;1298;51.252;6.802;2023-07-29T08:23:24;20.80;99.90
2577;DHT22;1298;51.252;6.802;2023-07-29T08:26:10;20.90;99.90
2577;DHT22;1298;51.252;6.802;2023-07-29T08:28:56;21.00;99.90
2577;DHT22;1298;51.252;6.802;2023-07-29T08:31:41;21.20;99.90
2577;DHT22;1298;51.252;6.802;2023-07-29T08:34:27;21.10;99.90
2577;DHT22;1298;51.252;6.802;2023-07-29T08:37:14;21.00;99.90
2577;DHT22;1298;51.252;6.802;2023-07-29T08:40:00;20.90;99.90
2577;DHT22;1298;51.252;6.802;2023-07-29T08:42:47;20.90;99.90
2577;DHT22;1298;51.252;6.802;2023-07-29T08:45:35;21.00;99.90
2577;DHT22;1298;51.252;6.802;2023-07-29T08:48:27;21.00;99.90
2577;DHT22;1298;51.252;6.802;2023-07-29T08:51:14;21.10;99.90
2577;DHT22;1298;51.252;6.802;2023-07-29T08:54:02;21.20;99.90
2577;DHT22;1298;51.252;6.802;2023-07-29T08:56:48;21.30;99.90
2577;DHT22;1298;51.252;6.802;2023-07-29T08:59:33;21.40;99.90
2577;DHT22;1298;51.252;6.802;2023-07-29T09:02:19;21.60;99.90
2577;DHT22;1298;51.252;6.802;2023-07-29T09:05:05;21.70;99.90
2577;DHT22;1298;51.252;6.802;2023-07-29T09:07:51;21.70;99.90
2577;DHT22;1298;51.252;6.802;2023-07-29T09:10:40;21.70;99.90
2577;DHT22;1298;51.252;6.802;2023-07-29T09:13:26;21.90;99.90
2577;DHT22;1298;51.252;6.802;2023-07-29T09:16:12;21.70;99.90
2577;DHT22;1298;51.252;6.802;2023-07-29T09:19:01;21.40;99.90
2577;DHT22;1298;51.252;6.802;2023-07-29T09:21:47;21.30;99.90
2577;DHT22;1298;51.252;6.802;2023-07-29T09:24:33;21.50;99.90
2577;DHT22;1298;51.252;6.802;2023-07-29T09:27:26;21.40;99.90
2577;DHT22;1298;51.252;6.802;2023-07-29T09:30:15;21.30;99.90
2577;DHT22;1298;51.252;6.802;2023-07-29T09:33:01;21.20;99.90
2577;DHT22;1298;51.252;6.802;2023-07-29T09:35:47;21.10;99.90
2577;DHT22;1298;51.252;6.802;2023-07-29T09:38:32;21.20;99.90
2577;DHT22;1298;51.252;6.802;2023-07-29T09:41:18;21.30;99.90
2577;DHT22;1298;51.252;6.802;2023-07-29T09:44:06;21.30;99.90
2577;DHT22;1298;51.252;6.802;2023-07-29T09:46:52;21.30;99.90
2577;DHT22;1298;51.252;6.802;2023-07-29T09:49:37;21.40;99.90
2577;DHT22;1298;51.252;6.802;2023-07-29T09:52:23;21.40;99.90
2577;DHT22;1298;51.252;6.802;2023-07-29T09:55:10;21.60;99.90
2577;DHT22;1298;51.252;6.802;2023-07-29T09:57:57;21.70;99.90
2577;DHT22;1298;51.252;6.802;2023-07-29T10:00:46;21.60;99.90
2577;DHT22;1298;51.252;6.802;2023-07-29T10:03:33;21.70;99.90
2577;DHT22;1298;51.252;6.802;2023-07-29T10:06:18;21.90;99.90
2577;DHT22;1298;51.252;6.802;2023-07-29T10:09:05;22.10;99.90
2577;DHT22;1298;51.252;6.802;2023-07-29T10:11:51;22.30;99.90
2577;DHT22;1298;51.252;6.802;2023-07-29T10:14:38;22.50;99.90
2577;DHT22;1298;51.252;6.802;2023-07-29T10:17:26;22.80;99.90
2577;DHT22;1298;51.252;6.802;2023-07-29T10:20:12;22.80;99.90
2577;DHT22;1298;51.252;6.802;2023-07-29T10:22:59;23.10;99.90
2577;DHT22;1298;51.252;6.802;2023-07-29T10:25:49;23.20;99.90
2577;DHT22;1298;51.252;6.802;2023-07-29T10:28:40;23.10;99.90
2577;DHT22;1298;51.252;6.802;2023-07-29T10:31:26;23.30;99.90
2577;DHT22;1298;51.252;6.802;2023-07-29T10:34:14;23.20;99.90
2577;DHT22;1298;51.252;6.802;2023-07-29T10:37:00;22.90;99.90
2577;DHT22;1298;51.252;6.802;2023-07-29T10:39:53;22.70;99.90
2577;DHT22;1298;51.252;6.802;2023-07-29T10:42:59;22.70;99.90
2577;DHT22;1298;51.252;6.802;2023-07-29T10:45:45;23.00;99.90
2577;DHT22;1298;51.252;6.802;2023-07-29T10:48:41;23.20;99.90
2577;DHT22;1298;51.252;6.802;2023-07-29T10:51:30;23.50;99.90
2577;DHT22;1298;51.252;6.802;2023-07-29T10:54:16;23.50;99.90
2577;DHT22;1298;51.252;6.802;2023-07-29T10:57:02;23.30;99.90
2577;DHT22;1298;51.252;6.802;2023-07-29T10:59:55;23.30;99.90
2577;DHT22;1298;51.252;6.802;2023-07-29T11:02:41;23.70;99.90
2577;DHT22;1298;51.252;6.802;2023-07-29T11:05:26;23.80;99.90
2577;DHT22;1298;51.252;6.802;2023-07-29T11:08:21;23.70;99.90
2577;DHT22;1298;51.252;6.802;2023-07-29T11:11:08;23.50;99.90
2577;DHT22;1298;51.252;6.802;2023-07-29T11:13:53;23.40;99.90
2577;DHT22;1298;51.252;6.802;2023-07-29T11:16:39;23.30;99.90
2577;DHT22;1298;51.252;6.802;2023-07-29T11:19:26;23.10;99.90
2577;DHT22;1298;51.252;6.802;2023-07-29T11:22:11;22.90;99.90
2577;DHT22;1298;51.252;6.802;2023-07-29T11:24:59;22.80;99.90
2577;DHT22;1298;51.252;6.802;2023-07-29T11:27:45;22.70;99.90
2577;DHT22;1298;51.252;6.802;2023-07-29T11:30:30;22.50;99.90
2577;DHT22;1298;51.252;6.802;2023-07-29T11:33:18;22.60;99.90
2577;DHT22;1298;51.252;6.802;2023-07-29T11:36:05;22.80;99.90
2577;DHT22;1298;51.252;6.802;2023-07-29T11:38:50;22.90;99.90
2577;DHT22;1298;51.252;6.802;2023-07-29T11:41:37;22.90;99.90
2577;DHT22;1298;51.252;6.802;2023-07-29T11:44:23;22.70;99.90
2577;DHT22;1298;51.252;6.802;2023-07-29T11:47:11;22.70;99.90
2577;DHT22;1298;51.252;6.802;2023-07-29T11:49:59;22.80;99.90
2577;DHT22;1298;51.252;6.802;2023-07-29T11:52:46;22.80;99.90
2577;DHT22;1298;51.252;6.802;2023-07-29T11:55:33;22.70;99.90
2577;DHT22;1298;51.252;6.802;2023-07-29T11:58:20;22.70;99.90
2577;DHT22;1298;51.252;6.802;2023-07-29T12:01:07;22.60;99.90
2577;DHT22;1298;51.252;6.802;2023-07-29T12:03:53;22.60;99.90
2577;DHT22;1298;51.252;6.802;2023-07-29T12:06:40;22.80;99.90
2577;DHT22;1298;51.252;6.802;2023-07-29T12:09:26;23.00;99.90
2577;DHT22;1298;51.252;6.802;2023-07-29T12:12:13;23.30;99.90
2577;DHT22;1298;51.252;6.802;2023-07-29T12:15:00;23.70;99.90
2577;DHT22;1298;51.252;6.802;2023-07-29T12:17:45;23.90;99.90
2577;DHT22;1298;51.252;6.802;2023-07-29T12:20:31;24.00;99.90
2577;DHT22;1298;51.252;6.802;2023-07-29T12:23:24;24.20;99.90
2577;DHT22;1298;51.252;6.802;2023-07-29T12:26:10;24.50;99.90
2577;DHT22;1298;51.252;6.802;2023-07-29T12:28:55;24.70;99.90
2577;DHT22;1298;51.252;6.802;2023-07-29T12:31:43;24.50;99.90
2577;DHT22;1298;51.252;6.802;2023-07-29T12:34:29;24.60;99.90
2577;DHT22;1298;51.252;6.802;2023-07-29T12:37:15;24.30;99.90
2577;DHT22;1298;51.252;6.802;2023-07-29T12:40:01;24.30;99.90
2577;DHT22;1298;51.252;6.802;2023-07-29T12:42:48;24.20;99.90
2577;DHT22;1298;51.252;6.802;2023-07-29T12:45:36;24.60;99.90
2577;DHT22;1298;51.252;6.802;2023-07-29T12:48:25;24.90;99.90
2577;DHT22;1298;51.252;6.802;2023-07-29T12:51:11;25.00;99.90
2577;DHT22;1298;51.252;6.802;2023-07-29T12:53:57;24.70;99.90
2577;DHT22;1298;51.252;6.802;2023-07-29T12:56:42;24.40;99.90
2577;DHT22;1298;51.252;6.802;2023-07-29T12:59:28;24.40;99.90
2577;DHT22;1298;51.252;6.802;2023-07-29T13:02:14;24.40;99.90
2577;DHT22;1298;51.252;6.802;2023-07-29T13:05:01;24.50;99.90
2577;DHT22;1298;51.252;6.802;2023-07-29T13:07:46;24.40;99.90
2577;DHT22;1298;51.252;6.802;2023-07-29T13:10:32;24.50;99.90
2577;DHT22;1298;51.252;6.802;2023-07-29T13:13:17;24.50;99.90
2577;DHT22;1298;51.252;6.802;2023-07-29T13:16:03;24.40;99.90
2577;DHT22;1298;51.252;6.802;2023-07-29T13:18:49;24.30;99.90
2577;DHT22;1298;51.252;6.802;2023-07-29T13:21:36;24.10;99.90
2577;DHT22;1298;51.252;6.802;2023-07-29T13:24:21;24.10;99.90
2577;DHT22;1298;51.252;6.802;2023-07-29T13:27:07;23.90;99.90
2577;DHT22;1298;51.252;6.802;2023-07-29T13:29:52;23.90;99.90
2577;DHT22;1298;51.252;6.802;2023-07-29T13:32:38;23.80;99.90
2577;DHT22;1298;51.252;6.802;2023-07-29T13:35:23;23.60;99.90
2577;DHT22;1298;51.252;6.802;2023-07-29T13:38:10;23.40;99.90
2577;DHT22;1298;51.252;6.802;2023-07-29T13:40:55;23.30;99.90
2577;DHT22;1298;51.252;6.802;2023-07-29T13:43:41;23.10;99.90
2577;DHT22;1298;51.252;6.802;2023-07-29T13:46:26;23.10;99.90
2577;DHT22;1298;51.252;6.802;2023-07-29T13:49:12;23.10;99.90
2577;DHT22;1298;51.252;6.802;2023-07-29T13:51:57;23.00;99.90
2577;DHT22;1298;51.252;6.802;2023-07-29T13:54:44;23.00;99.90
2577;DHT22;1298;51.252;6.802;2023-07-29T13:57:29;23.10;99.90
2577;DHT22;1298;51.252;6.802;2023-07-29T14:00:15;23.20;99.90
2577;DHT22;1298;51.252;6.802;2023-07-29T14:03:01;23.40;99.90
2577;DHT22;1298;51.252;6.802;2023-07-29T14:05:46;23.70;99.90
2577;DHT22;1298;51.252;6.802;2023-07-29T14:08:32;24.40;99.90
2577;DHT22;1298;51.252;6.802;2023-07-29T14:11:20;25.10;99.90
2577;DHT22;1298;51.252;6.802;2023-07-29T14:14:06;25.00;99.90
2577;DHT22;1298;51.252;6.802;2023-07-29T14:16:52;24.30;99.90
2577;DHT22;1298;51.252;6.802;2023-07-29T14:19:38;24.00;99.90
2577;DHT22;1298;51.252;6.802;2023-07-29T14:22:23;24.00;99.90
2577;DHT22;1298;51.252;6.802;2023-07-29T14:25:09;23.50;99.90
2577;DHT22;1298;51.252;6.802;2023-07-29T14:27:56;23.30;99.90
2577;DHT22;1298;51.252;6.802;2023-07-29T14:30:41;23.40;99.90
2577;DHT22;1298;51.252;6.802;2023-07-29T14:33:27;23.40;99.90
2577;DHT22;1298;51.252;6.802;2023-07-29T14:36:12;23.70;99.90
2577;DHT22;1298;51.252;6.802;2023-07-29T14:38:58;24.00;99.90
2577;DHT22;1298;51.252;6.802;2023-07-29T14:41:44;23.90;99.90
2577;DHT22;1298;51.252;6.802;2023-07-29T14:44:30;23.60;99.90
2577;DHT22;1298;51.252;6.802;2023-07-29T14:47:16;23.30;99.90
2577;DHT22;1298;51.252;6.802;2023-07-29T14:50:02;22.90;99.90
2577;DHT22;1298;51.252;6.802;2023-07-29T14:52:47;22.70;99.90
2577;DHT22;1298;51.252;6.802;2023-07-29T14:55:33;22.70;99.90
2577;DHT22;1298;51.252;6.802;2023-07-29T14:58:19;22.70;99.90
2577;DHT22;1298;51.252;6.802;2023-07-29T15:01:06;22.60;99.90
2577;DHT22;1298;51.252;6.802;2023-07-29T15:03:52;22.70;99.90
2577;DHT22;1298;51.252;6.802;2023-07-29T15:06:37;22.80;99.90
2577;DHT22;1298;51.252;6.802;2023-07-29T15:09:23;23.10;99.90
2577;DHT22;1298;51.252;6.802;2023-07-29T15:12:09;23.80;99.90
2577;DHT22;1298;51.252;6.802;2023-07-29T15:20:07;26.10;99.90
2577;DHT22;1298;51.252;6.802;2023-07-29T15:22:53;26.40;99.90
2577;DHT22;1298;51.252;6.802;2023-07-29T15:25:39;26.80;99.90
2577;DHT22;1298;51.252;6.802;2023-07-29T15:28:25;27.20;99.90
2577;DHT22;1298;51.252;6.802;2023-07-29T15:31:12;27.90;99.90
2577;DHT22;1298;51.252;6.802;2023-07-29T15:33:58;28.40;99.90
2577;DHT22;1298;51.252;6.802;2023-07-29T15:36:44;28.00;99.90
2577;DHT22;1298;51.252;6.802;2023-07-29T15:39:30;27.50;99.90
2577;DHT22;1298;51.252;6.802;2023-07-29T15:42:16;28.10;99.90
2577;DHT22;1298;51.252;6.802;2023-07-29T15:45:02;29.50;99.90
2577;DHT22;1298;51.252;6.802;2023-07-29T15:47:47;30.60;99.90
2577;DHT22;1298;51.252;6.802;2023-07-29T15:50:33;31.40;99.90
2577;DHT22;1298;51.252;6.802;2023-07-29T15:53:20;31.30;99.90
2577;DHT22;1298;51.252;6.802;2023-07-29T15:56:05;30.90;99.90
2577;DHT22;1298;51.252;6.802;2023-07-29T15:58:51;30.40;99.90
2577;DHT22;1298;51.252;6.802;2023-07-29T16:01:36;30.40;99.90
2577;DHT22;1298;51.252;6.802;2023-07-29T16:04:22;30.30;99.90
2577;DHT22;1298;51.252;6.802;2023-07-29T16:07:07;31.00;99.90
2577;DHT22;1298;51.252;6.802;2023-07-29T16:09:54;31.80;99.90
2577;DHT22;1298;51.252;6.802;2023-07-29T16:12:40;31.40;99.90
2577;DHT22;1298;51.252;6.802;2023-07-29T16:15:26;30.50;99.90
2577;DHT22;1298;51.252;6.802;2023-07-29T16:18:11;30.60;99.90
2577;DHT22;1298;51.252;6.802;2023-07-29T16:20:57;29.50;99.90
2577;DHT22;1298;51.252;6.802;2023-07-29T16:23:45;28.30;99.90
2577;DHT22;1298;51.252;6.802;2023-07-29T16:26:37;28.70;99.90
2577;DHT22;1298;51.252;6.802;2023-07-29T16:29:23;28.60;99.90
2577;DHT22;1298;51.252;6.802;2023-07-29T16:32:08;28.30;99.90
2577;DHT22;1298;51.252;6.802;2023-07-29T16:34:54;27.20;99.90
2577;DHT22;1298;51.252;6.802;2023-07-29T16:37:39;26.80;99.90
2577;DHT22;1298;51.252;6.802;2023-07-29T16:40:25;27.10;99.90
2577;DHT22;1298;51.252;6.802;2023-07-29T16:43:12;26.50;99.90
2577;DHT22;1298;51.252;6.802;2023-07-29T16:45:57;25.80;99.90
2577;DHT22;1298;51.252;6.802;2023-07-29T16:48:43;25.50;99.90
2577;DHT22;1298;51.252;6.802;2023-07-29T16:51:28;25.30;99.90
2577;DHT22;1298;51.252;6.802;2023-07-29T16:54:14;25.20;99.90
2577;DHT22;1298;51.252;6.802;2023-07-29T16:57:02;25.10;99.90
2577;DHT22;1298;51.252;6.802;2023-07-29T16:59:48;24.80;99.90
2577;DHT22;1298;51.252;6.802;2023-07-29T17:02:34;24.70;99.90
2577;DHT22;1298;51.252;6.802;2023-07-29T17:05:19;24.60;99.90
2577;DHT22;1298;51.252;6.802;2023-07-29T17:08:05;24.40;99.90
2577;DHT22;1298;51.252;6.802;2023-07-29T17:10:50;24.20;99.90
2577;DHT22;1298;51.252;6.802;2023-07-29T17:13:35;23.90;99.90
2577;DHT22;1298;51.252;6.802;2023-07-29T17:16:23;23.80;99.90
2577;DHT22;1298;51.252;6.802;2023-07-29T17:19:08;23.90;99.90
2577;DHT22;1298;51.252;6.802;2023-07-29T17:21:54;23.90;99.90
2577;DHT22;1298;51.252;6.802;2023-07-29T17:24:39;24.20;99.90
2577;DHT22;1298;51.252;6.802;2023-07-29T17:27:25;24.50;99.90
2577;DHT22;1298;51.252;6.802;2023-07-29T17:30:11;25.10;99.90
2577;DHT22;1298;51.252;6.802;2023-07-29T17:32:58;25.10;99.90
2577;DHT22;1298;51.252;6.802;2023-07-29T17:35:45;25.20;99.90
2577;DHT22;1298;51.252;6.802;2023-07-29T17:38:31;25.30;99.90
2577;DHT22;1298;51.252;6.802;2023-07-29T17:41:16;25.10;99.90
2577;DHT22;1298;51.252;6.802;2023-07-29T17:44:02;25.20;99.90
2577;DHT22;1298;51.252;6.802;2023-07-29T17:46:48;24.90;99.90
2577;DHT22;1298;51.252;6.802;2023-07-29T17:49:35;24.50;99.90
2577;DHT22;1298;51.252;6.802;2023-07-29T17:52:21;24.40;99.90
2577;DHT22;1298;51.252;6.802;2023-07-29T17:55:07;24.70;99.90
2577;DHT22;1298;51.252;6.802;2023-07-29T17:57:52;24.70;99.90
2577;DHT22;1298;51.252;6.802;2023-07-29T18:00:38;24.40;99.90
2577;DHT22;1298;51.252;6.802;2023-07-29T18:03:24;24.10;99.90
2577;DHT22;1298;51.252;6.802;2023-07-29T18:06:15;23.90;99.90
2577;DHT22;1298;51.252;6.802;2023-07-29T18:09:01;23.80;99.90
2577;DHT22;1298;51.252;6.802;2023-07-29T18:11:46;23.60;99.90